Time;durP1;ratioP1;P1;durP2;ratioP2;P2;SDS_P1;SDS_P2;PMS_P1;PMS_P2;Temp;Humidity;BMP_temperature;BMP_pressure;BME280_temperature;BME280_humidity;BME280_pressure;Samples;Min_cycle;Max_cycle;Signal;HPM_P1;HPM_P2
2023/09/24 00:00:56;;;;;;;65.38;11.75;;;;;;;;;;5110174;28;20024;-50
2023/09/24 00:03:24;;;;;;;58.80;7.95;;;;;;;;;;5095958;28;20028;-51
2023/09/24 00:05:51;;;;;;;69.07;8.40;;;;;;;;;;5103949;28;20027;-46
2023/09/24 00:08:19;;;;;;;66.25;8.32;;;;;;;;;;5110807;28;20520;-47
2023/09/24 00:10:50;;;;;;;64.40;8.23;;;;;;;;;;5105309;28;20388;-52
2023/09/24 00:13:18;;;;;;;69.10;8.63;;;;;;;;;;5097498;28;20490;-54
2023/09/24 00:15:45;;;;;;;67.72;8.55;;;;;;;;;;5108306;28;20036;-53
2023/09/24 00:18:12;;;;;;;75.90;9.75;;;;;;;;;;5110637;28;20031;-47
2023/09/24 00:20:39;;;;;;;62.53;8.15;;;;;;;;;;5109745;28;20059;-47
2023/09/24 00:23:06;;;;;;;61.90;8.27;;;;;;;;;;5111151;28;20389;-46
2023/09/24 00:25:33;;;;;;;53.90;7.55;;;;;;;;;;5105849;28;20482;-45
2023/09/24 00:28:00;;;;;;;60.33;9.80;;;;;;;;;;5100489;28;20047;-45
2023/09/24 00:30:27;;;;;;;47.92;7.55;;;;;;;;;;5096458;28;20038;-48
2023/09/24 00:32:54;;;;;;;52.85;8.30;;;;;;;;;;5109709;28;20138;-49
2023/09/24 00:35:22;;;;;;;44.42;8.18;;;;;;;;;;5110580;28;20473;-53
2023/09/24 00:37:49;;;;;;;54.63;8.40;;;;;;;;;;5093713;28;20028;-49
2023/09/24 00:40:16;;;;;;;36.47;7.25;;;;;;;;;;5100733;28;20056;-47
2023/09/24 00:42:43;;;;;;;44.00;7.97;;;;;;;;;;5104493;28;20024;-45
2023/09/24 00:45:11;;;;;;;43.72;8.32;;;;;;;;;;5093643;28;20201;-46
2023/09/24 00:47:42;;;;;;;36.55;6.75;;;;;;;;;;5101508;28;20047;-46
2023/09/24 00:50:10;;;;;;;43.83;8.75;;;;;;;;;;5111269;28;20027;-46
2023/09/24 00:52:37;;;;;;;36.33;6.88;;;;;;;;;;5111319;28;20097;-52
2023/09/24 00:55:06;;;;;;;40.97;7.22;;;;;;;;;;5111407;28;20024;-49
2023/09/24 00:57:34;;;;;;;46.22;7.70;;;;;;;;;;5106430;28;20568;-52
2023/09/24 01:00:08;;;;;;;46.40;8.05;;;;;;;;;;5111412;28;20034;-51
2023/09/24 01:02:36;;;;;;;38.58;8.02;;;;;;;;;;5127639;28;20054;-51
2023/09/24 01:05:04;;;;;;;44.42;8.20;;;;;;;;;;5115268;28;20506;-46
2023/09/24 01:07:31;;;;;;;46.35;7.82;;;;;;;;;;5102814;28;20048;-50
2023/09/24 01:09:59;;;;;;;51.03;7.72;;;;;;;;;;5106519;28;20024;-47
2023/09/24 01:12:32;;;;;;;64.72;8.32;;;;;;;;;;5104996;27;20061;-52
2023/09/24 01:14:59;;;;;;;68.75;8.98;;;;;;;;;;5096989;28;20065;-47
2023/09/24 01:17:27;;;;;;;74.70;10.35;;;;;;;;;;5107339;27;20035;-47
2023/09/24 01:19:54;;;;;;;59.05;9.02;;;;;;;;;;5114595;28;20374;-53
2023/09/24 01:22:22;;;;;;;66.88;9.20;;;;;;;;;;5114545;28;20023;-48
2023/09/24 01:24:49;;;;;;;53.92;9.02;;;;;;;;;;5114349;28;20055;-50
2023/09/24 01:27:16;;;;;;;58.80;9.52;;;;;;;;;;5114320;27;20410;-48
2023/09/24 01:29:43;;;;;;;46.58;8.77;;;;;;;;;;5113061;28;20055;-45
2023/09/24 01:32:11;;;;;;;76.38;9.05;;;;;;;;;;5103271;28;20035;-52
2023/09/24 01:34:38;;;;;;;55.90;8.25;;;;;;;;;;5111800;28;20066;-47
2023/09/24 01:37:09;;;;;;;50.78;9.40;;;;;;;;;;5114231;28;20587;-49
2023/09/24 01:39:36;;;;;;;42.88;7.85;;;;;;;;;;5113959;28;20074;-48
2023/09/24 01:42:05;;;;;;;47.47;9.30;;;;;;;;;;5109338;27;20023;-51
2023/09/24 01:44:35;;;;;;;48.67;9.20;;;;;;;;;;5108513;28;20053;-50
2023/09/24 01:47:03;;;;;;;51.33;9.88;;;;;;;;;;5102539;27;20028;-49
2023/09/24 01:49:31;;;;;;;56.08;11.10;;;;;;;;;;5104579;28;20502;-46
2023/09/24 01:51:58;;;;;;;67.57;13.13;;;;;;;;;;5113475;27;20039;-47
2023/09/24 01:54:25;;;;;;;74.68;17.05;;;;;;;;;;5114122;28;20031;-51
2023/09/24 01:56:57;;;;;;;102.85;23.95;;;;;;;;;;5104988;27;20032;-51
2023/09/24 01:59:25;;;;;;;107.03;28.48;;;;;;;;;;5107405;28;20110;-52
2023/09/24 02:01:52;;;;;;;133.45;30.00;;;;;;;;;;5107890;28;20803;-46
2023/09/24 02:04:19;;;;;;;129.85;33.25;;;;;;;;;;5113345;28;20071;-50
2023/09/24 02:06:47;;;;;;;117.65;31.92;;;;;;;;;;5113236;28;20560;-47
2023/09/24 02:09:16;;;;;;;116.80;29.33;;;;;;;;;;5111296;28;20031;-48
2023/09/24 02:11:43;;;;;;;114.22;29.40;;;;;;;;;;5105379;27;20067;-51
2023/09/24 02:14:10;;;;;;;104.57;27.23;;;;;;;;;;5113347;28;20528;-52
2023/09/24 02:16:38;;;;;;;98.90;27.90;;;;;;;;;;5112136;27;20027;-48
2023/09/24 02:19:06;;;;;;;108.75;28.73;;;;;;;;;;5113470;28;20028;-46
2023/09/24 02:21:33;;;;;;;99.57;28.85;;;;;;;;;;5112432;27;20503;-46
2023/09/24 02:24:00;;;;;;;96.50;28.85;;;;;;;;;;5107351;28;20031;-52
2023/09/24 02:26:27;;;;;;;94.63;28.52;;;;;;;;;;5094163;27;20055;-46
2023/09/24 02:28:54;;;;;;;91.43;27.15;;;;;;;;;;5098557;28;20508;-47
2023/09/24 02:31:21;;;;;;;97.57;27.58;;;;;;;;;;5096535;27;20024;-53
2023/09/24 02:33:48;;;;;;;90.85;27.25;;;;;;;;;;5095555;28;20028;-46
2023/09/24 02:36:15;;;;;;;115.18;28.13;;;;;;;;;;5103499;28;20545;-52
2023/09/24 02:38:43;;;;;;;90.40;25.52;;;;;;;;;;5102552;27;20423;-46
2023/09/24 02:41:11;;;;;;;95.57;27.55;;;;;;;;;;5096489;28;20028;-48
2023/09/24 02:43:38;;;;;;;84.30;25.00;;;;;;;;;;5112166;27;20476;-46
2023/09/24 02:46:05;;;;;;;94.40;25.30;;;;;;;;;;5112480;28;20103;-46
2023/09/24 02:48:36;;;;;;;86.82;25.10;;;;;;;;;;5100625;28;20147;-49
2023/09/24 02:51:10;;;;;;;80.97;23.33;;;;;;;;;;5112398;28;20509;-48
2023/09/24 02:53:37;;;;;;;67.57;21.92;;;;;;;;;;5099163;27;20035;-45
2023/09/24 02:56:04;;;;;;;73.53;22.13;;;;;;;;;;5112743;28;20031;-46
2023/09/24 02:58:32;;;;;;;66.32;21.27;;;;;;;;;;5112833;28;20385;-46
2023/09/24 03:00:59;;;;;;;72.68;21.65;;;;;;;;;;5112452;28;20051;-49
2023/09/24 03:03:26;;;;;;;71.20;21.00;;;;;;;;;;5102400;28;20028;-48
2023/09/24 03:05:53;;;;;;;68.50;21.83;;;;;;;;;;5095869;28;20027;-46
2023/09/24 03:08:20;;;;;;;70.25;21.67;;;;;;;;;;5112671;27;20053;-46
2023/09/24 03:10:48;;;;;;;67.68;20.80;;;;;;;;;;5112256;28;20449;-48
2023/09/24 03:13:15;;;;;;;63.13;19.45;;;;;;;;;;5111257;28;20034;-52
2023/09/24 03:15:42;;;;;;;60.88;19.23;;;;;;;;;;5111151;28;20024;-49
2023/09/24 03:18:09;;;;;;;60.60;18.60;;;;;;;;;;5104255;27;20032;-49
2023/09/24 03:20:37;;;;;;;64.72;18.90;;;;;;;;;;5098657;28;20073;-48
2023/09/24 03:23:08;;;;;;;55.65;18.65;;;;;;;;;;5101679;28;20107;-46
2023/09/24 03:25:35;;;;;;;53.93;17.73;;;;;;;;;;5098173;28;20481;-50
2023/09/24 03:28:02;;;;;;;55.53;18.83;;;;;;;;;;5099296;28;20124;-48
2023/09/24 03:30:30;;;;;;;56.47;18.42;;;;;;;;;;5101006;28;20393;-51
2023/09/24 03:32:58;;;;;;;64.70;19.67;;;;;;;;;;5099786;28;20027;-49
2023/09/24 03:35:26;;;;;;;53.75;16.40;;;;;;;;;;5100840;28;20108;-46
2023/09/24 03:37:54;;;;;;;52.10;17.10;;;;;;;;;;5107826;28;20172;-48
2023/09/24 03:40:21;;;;;;;48.33;16.10;;;;;;;;;;5104357;28;20743;-50
2023/09/24 03:42:48;;;;;;;55.80;18.30;;;;;;;;;;5095697;28;20441;-49
2023/09/24 03:45:16;;;;;;;50.50;17.10;;;;;;;;;;5097398;28;20030;-49
2023/09/24 03:47:45;;;;;;;45.53;16.33;;;;;;;;;;5100318;28;20046;-46
2023/09/24 03:50:16;;;;;;;51.15;16.55;;;;;;;;;;5096764;28;20102;-48
2023/09/24 03:52:44;;;;;;;55.03;15.83;;;;;;;;;;5093661;28;20493;-47
2023/09/24 03:55:11;;;;;;;49.78;16.55;;;;;;;;;;5093647;28;20020;-46
2023/09/24 03:57:39;;;;;;;44.05;16.15;;;;;;;;;;5094018;28;20110;-46
2023/09/24 04:00:18;;;;;;;44.92;15.80;;;;;;;;;;5093575;28;20468;-49
2023/09/24 04:02:49;;;;;;;46.95;15.45;;;;;;;;;;5093896;28;20036;-46
2023/09/24 04:05:21;;;;;;;45.10;14.93;;;;;;;;;;5092512;28;20398;-46
2023/09/24 04:07:52;;;;;;;41.22;15.60;;;;;;;;;;5106612;28;20634;-47
2023/09/24 04:10:20;;;;;;;37.28;13.73;;;;;;;;;;5098513;28;20032;-45
2023/09/24 04:12:51;;;;;;;45.22;15.48;;;;;;;;;;5091643;28;20038;-46
2023/09/24 04:15:18;;;;;;;40.10;14.60;;;;;;;;;;5086819;22;20055;-47
2023/09/24 04:17:48;;;;;;;36.95;13.75;;;;;;;;;;5071390;28;20024;-48
2023/09/24 04:20:17;;;;;;;39.38;13.95;;;;;;;;;;5071527;28;20032;-46
2023/09/24 04:22:47;;;;;;;37.20;13.88;;;;;;;;;;5071320;28;20082;-48
2023/09/24 04:25:15;;;;;;;41.72;13.00;;;;;;;;;;5071223;28;20039;-48
2023/09/24 04:27:45;;;;;;;33.38;13.15;;;;;;;;;;5070891;28;20091;-46
2023/09/24 04:30:16;;;;;;;34.42;13.15;;;;;;;;;;5071410;28;20025;-47
2023/09/24 04:32:44;;;;;;;37.85;13.48;;;;;;;;;;5071200;28;20043;-47
2023/09/24 04:35:11;;;;;;;35.70;13.07;;;;;;;;;;5071079;28;20024;-46
2023/09/24 04:37:41;;;;;;;31.23;12.23;;;;;;;;;;5071212;28;20051;-46
2023/09/24 04:40:14;;;;;;;32.53;12.98;;;;;;;;;;5071101;28;20032;-47
2023/09/24 04:42:45;;;;;;;34.05;12.55;;;;;;;;;;5071127;28;20072;-47
2023/09/24 04:45:13;;;;;;;29.38;11.43;;;;;;;;;;5074614;28;20044;-46
2023/09/24 04:47:41;;;;;;;32.55;11.75;;;;;;;;;;5075015;28;20048;-47
2023/09/24 04:50:11;;;;;;;28.08;11.38;;;;;;;;;;5075020;28;20047;-47
2023/09/24 04:52:42;;;;;;;31.73;10.90;;;;;;;;;;5074699;28;20395;-48
2023/09/24 04:55:09;;;;;;;31.58;11.38;;;;;;;;;;5074775;28;20449;-47
2023/09/24 04:57:36;;;;;;;26.85;11.02;;;;;;;;;;5074859;28;20104;-48
2023/09/24 05:00:04;;;;;;;26.17;10.55;;;;;;;;;;5074854;28;20028;-47
2023/09/24 05:02:31;;;;;;;28.05;10.48;;;;;;;;;;5074713;28;20108;-47
2023/09/24 05:04:58;;;;;;;26.92;9.98;;;;;;;;;;5074758;28;20031;-47
2023/09/24 05:07:25;;;;;;;23.65;10.00;;;;;;;;;;5074583;28;20454;-47
2023/09/24 05:09:52;;;;;;;27.88;10.15;;;;;;;;;;5074751;28;20033;-47
2023/09/24 05:12:19;;;;;;;23.52;9.45;;;;;;;;;;5074214;28;20036;-47
2023/09/24 05:14:46;;;;;;;22.92;10.00;;;;;;;;;;5074337;28;20083;-47
2023/09/24 05:17:13;;;;;;;27.58;10.32;;;;;;;;;;5074544;28;20032;-49
2023/09/24 05:19:40;;;;;;;23.70;9.52;;;;;;;;;;5074618;28;20607;-46
2023/09/24 05:22:17;;;;;;;26.25;9.52;;;;;;;;;;5074339;28;20524;-46
2023/09/24 05:24:47;;;;;;;21.45;9.10;;;;;;;;;;5074342;28;20081;-48
2023/09/24 05:27:17;;;;;;;22.33;9.02;;;;;;;;;;5074348;28;20115;-47
2023/09/24 05:29:49;;;;;;;21.92;8.50;;;;;;;;;;5074482;28;20182;-47
2023/09/24 05:32:16;;;;;;;19.00;8.95;;;;;;;;;;5074142;28;20137;-47
2023/09/24 05:34:43;;;;;;;17.52;8.32;;;;;;;;;;5074235;28;20037;-47
2023/09/24 05:37:10;;;;;;;21.92;8.93;;;;;;;;;;5074266;28;20025;-47
2023/09/24 05:39:37;;;;;;;20.77;8.82;;;;;;;;;;5074220;28;20535;-50
2023/09/24 05:42:04;;;;;;;21.15;8.25;;;;;;;;;;5074169;28;20025;-47
2023/09/24 05:44:32;;;;;;;19.42;8.70;;;;;;;;;;5074028;28;20500;-47
2023/09/24 05:47:00;;;;;;;16.95;7.57;;;;;;;;;;5073918;28;20040;-48
2023/09/24 05:49:27;;;;;;;18.98;8.20;;;;;;;;;;5073995;28;20024;-47
2023/09/24 05:51:54;;;;;;;17.70;8.30;;;;;;;;;;5074014;28;20029;-46
2023/09/24 05:54:21;;;;;;;20.15;7.53;;;;;;;;;;5073621;28;20036;-48
2023/09/24 05:56:48;;;;;;;16.23;7.07;;;;;;;;;;5073926;28;20017;-48
2023/09/24 05:59:15;;;;;;;16.15;7.13;;;;;;;;;;5073711;28;20044;-47
2023/09/24 06:01:42;;;;;;;16.17;7.00;;;;;;;;;;5072204;28;20829;-47
2023/09/24 06:04:09;;;;;;;18.30;7.30;;;;;;;;;;5073677;28;20039;-48
2023/09/24 06:06:37;;;;;;;14.23;7.05;;;;;;;;;;5073434;28;20024;-47
2023/09/24 06:09:09;;;;;;;20.35;8.15;;;;;;;;;;5073556;28;20067;-46
2023/09/24 06:11:37;;;;;;;16.50;7.07;;;;;;;;;;5073736;28;20447;-46
2023/09/24 06:14:08;;;;;;;16.48;7.28;;;;;;;;;;5073054;28;20106;-48
2023/09/24 06:16:38;;;;;;;17.05;6.75;;;;;;;;;;5073384;28;20025;-47
2023/09/24 06:19:06;;;;;;;14.73;6.25;;;;;;;;;;5073509;28;20438;-46
2023/09/24 06:21:33;;;;;;;16.08;6.82;;;;;;;;;;5073254;28;20025;-46
2023/09/24 06:24:00;;;;;;;14.45;6.90;;;;;;;;;;5073246;28;20599;-46
2023/09/24 06:26:27;;;;;;;15.90;6.25;;;;;;;;;;5073301;28;20493;-46
2023/09/24 06:28:54;;;;;;;15.23;6.95;;;;;;;;;;5073269;28;20036;-48
2023/09/24 06:31:21;;;;;;;15.20;6.90;;;;;;;;;;5073271;28;20390;-46
2023/09/24 06:33:48;;;;;;;18.38;7.22;;;;;;;;;;5073156;28;20024;-47
2023/09/24 06:36:15;;;;;;;15.70;5.95;;;;;;;;;;5072984;28;20111;-48
2023/09/24 06:38:43;;;;;;;15.68;7.10;;;;;;;;;;5072945;28;20115;-47
2023/09/24 06:41:11;;;;;;;15.07;6.47;;;;;;;;;;5072950;28;20064;-46
2023/09/24 06:43:37;;;;;;;15.75;6.15;;;;;;;;;;5072735;28;20029;-46
2023/09/24 06:46:05;;;;;;;13.90;6.53;;;;;;;;;;5072941;28;20040;-48
2023/09/24 06:48:32;;;;;;;13.75;6.25;;;;;;;;;;5072518;28;20047;-46
2023/09/24 06:51:06;;;;;;;11.68;6.13;;;;;;;;;;5072904;28;20024;-47
2023/09/24 06:53:33;;;;;;;17.17;5.65;;;;;;;;;;5072807;28;20043;-46
2023/09/24 06:56:00;;;;;;;12.02;5.75;;;;;;;;;;5072742;28;20024;-46
2023/09/24 06:58:28;;;;;;;12.63;5.43;;;;;;;;;;5072725;28;20028;-47
2023/09/24 07:01:00;;;;;;;13.40;5.30;;;;;;;;;;5072442;28;20470;-47
2023/09/24 07:03:27;;;;;;;11.73;5.23;;;;;;;;;;5072610;28;20039;-46
2023/09/24 07:05:54;;;;;;;12.18;5.53;;;;;;;;;;5072024;28;20337;-47
2023/09/24 07:08:21;;;;;;;10.73;5.18;;;;;;;;;;5072099;28;20037;-47
2023/09/24 07:11:10;;;;;;;12.65;5.68;;;;;;;;;;5072434;28;20100;-46
2023/09/24 07:13:37;;;;;;;9.80;4.72;;;;;;;;;;5062108;28;20052;-47
2023/09/24 07:16:05;;;;;;;9.85;4.55;;;;;;;;;;5072061;28;20035;-47
2023/09/24 07:18:33;;;;;;;9.57;4.18;;;;;;;;;;5072272;28;20124;-47
2023/09/24 07:21:00;;;;;;;9.77;3.80;;;;;;;;;;5072259;28;20055;-46
2023/09/24 07:23:27;;;;;;;8.45;3.65;;;;;;;;;;5071870;28;20409;-47
2023/09/24 07:25:54;;;;;;;8.60;3.67;;;;;;;;;;5072005;28;20029;-46
2023/09/24 07:28:24;;;;;;;7.90;3.42;;;;;;;;;;5072079;28;20517;-47
2023/09/24 07:30:54;;;;;;;8.02;3.70;;;;;;;;;;5072225;28;20040;-47
2023/09/24 07:33:21;;;;;;;8.73;3.72;;;;;;;;;;5071887;28;20036;-47
2023/09/24 07:35:48;;;;;;;7.82;3.25;;;;;;;;;;5071927;28;20095;-48
2023/09/24 07:38:15;;;;;;;6.75;3.00;;;;;;;;;;5071959;28;20078;-47
2023/09/24 07:40:43;;;;;;;7.38;3.17;;;;;;;;;;5071998;28;20104;-46
2023/09/24 07:43:10;;;;;;;8.00;3.53;;;;;;;;;;5071641;28;20525;-46
2023/09/24 07:45:37;;;;;;;7.32;2.90;;;;;;;;;;5071920;28;20029;-47
2023/09/24 07:48:10;;;;;;;7.03;3.10;;;;;;;;;;5071699;28;20107;-48
2023/09/24 07:50:37;;;;;;;5.05;2.85;;;;;;;;;;5071683;28;20390;-46
2023/09/24 07:53:05;;;;;;;6.80;2.85;;;;;;;;;;5071649;28;20043;-48
2023/09/24 07:55:32;;;;;;;5.80;3.00;;;;;;;;;;5071624;28;20092;-47
2023/09/24 07:57:59;;;;;;;6.43;2.95;;;;;;;;;;5071675;28;20021;-47
2023/09/24 08:00:26;;;;;;;6.10;3.10;;;;;;;;;;5071650;28;20421;-48
2023/09/24 08:02:53;;;;;;;4.82;2.55;;;;;;;;;;5071711;28;20020;-48
2023/09/24 08:05:20;;;;;;;5.53;2.72;;;;;;;;;;5071575;28;20509;-46
2023/09/24 08:07:47;;;;;;;5.43;2.53;;;;;;;;;;5071604;28;20033;-49
2023/09/24 08:10:15;;;;;;;5.72;2.75;;;;;;;;;;5071667;28;20474;-47
2023/09/24 08:12:42;;;;;;;5.03;2.53;;;;;;;;;;5071473;28;20040;-47
2023/09/24 08:15:09;;;;;;;5.43;2.47;;;;;;;;;;5071429;28;20056;-48
2023/09/24 08:17:36;;;;;;;5.72;2.65;;;;;;;;;;5084717;28;20020;-46
2023/09/24 08:20:03;;;;;;;7.55;2.65;;;;;;;;;;5095268;28;20366;-46
2023/09/24 08:22:30;;;;;;;4.13;2.50;;;;;;;;;;5095815;28;20655;-46
2023/09/24 08:24:57;;;;;;;5.43;2.60;;;;;;;;;;5095872;28;20024;-47
2023/09/24 08:27:24;;;;;;;3.90;2.20;;;;;;;;;;5095835;28;20039;-47
2023/09/24 08:29:53;;;;;;;4.68;2.38;;;;;;;;;;5095855;28;20024;-46
2023/09/24 08:32:20;;;;;;;5.50;2.40;;;;;;;;;;5095649;28;20038;-46
2023/09/24 08:34:48;;;;;;;5.40;2.33;;;;;;;;;;5095586;28;20557;-48
2023/09/24 08:37:15;;;;;;;3.97;2.17;;;;;;;;;;5095561;28;20068;-46
2023/09/24 08:39:42;;;;;;;3.67;2.03;;;;;;;;;;5095542;28;20035;-47
2023/09/24 08:42:12;;;;;;;4.50;2.00;;;;;;;;;;5095614;28;20032;-46
2023/09/24 08:44:40;;;;;;;4.57;2.10;;;;;;;;;;5095298;28;20445;-47
2023/09/24 08:47:07;;;;;;;4.20;2.10;;;;;;;;;;5095396;28;20036;-46
2023/09/24 08:49:35;;;;;;;3.78;2.33;;;;;;;;;;5095411;28;20115;-47
2023/09/24 08:52:03;;;;;;;2.65;1.80;;;;;;;;;;5095398;28;20412;-46
2023/09/24 08:54:32;;;;;;;6.38;2.40;;;;;;;;;;5095188;28;20028;-46
2023/09/24 08:56:59;;;;;;;6.45;2.55;;;;;;;;;;5095399;28;20028;-46
2023/09/24 08:59:26;;;;;;;4.45;1.98;;;;;;;;;;5095188;28;20445;-46
2023/09/24 09:01:56;;;;;;;4.00;2.30;;;;;;;;;;5095077;28;20085;-47
2023/09/24 09:04:23;;;;;;;4.45;2.20;;;;;;;;;;5095118;28;20028;-46
2023/09/24 09:06:51;;;;;;;4.15;2.00;;;;;;;;;;5094984;28;20150;-46
2023/09/24 09:09:26;;;;;;;5.43;2.40;;;;;;;;;;5094971;28;20039;-47
2023/09/24 09:11:53;;;;;;;3.72;2.03;;;;;;;;;;5094914;28;20028;-47
2023/09/24 09:14:39;;;;;;;4.32;2.15;;;;;;;;;;5094576;28;20060;-47
2023/09/24 09:17:06;;;;;;;2.55;1.65;;;;;;;;;;5094773;28;20062;-47
2023/09/24 09:19:48;;;;;;;2.92;1.67;;;;;;;;;;5094857;28;20036;-47
2023/09/24 09:22:19;;;;;;;3.75;1.80;;;;;;;;;;5094690;28;20122;-48
2023/09/24 09:24:48;;;;;;;3.88;1.98;;;;;;;;;;5094578;28;20358;-48
2023/09/24 09:27:15;;;;;;;3.67;1.88;;;;;;;;;;5094470;28;20814;-47
2023/09/24 09:29:42;;;;;;;4.30;2.00;;;;;;;;;;5094083;28;20439;-46
2023/09/24 09:32:09;;;;;;;3.42;1.90;;;;;;;;;;5094620;28;20020;-47
2023/09/24 09:34:36;;;;;;;3.78;1.90;;;;;;;;;;5094561;28;20106;-47
2023/09/24 09:37:24;;;;;;;3.40;1.98;;;;;;;;;;5094390;28;20050;-48
2023/09/24 09:39:53;;;;;;;4.32;2.00;;;;;;;;;;5094370;28;20118;-47
2023/09/24 09:42:21;;;;;;;3.30;1.80;;;;;;;;;;5094344;28;20074;-48
2023/09/24 09:44:51;;;;;;;3.38;2.08;;;;;;;;;;5094074;28;20035;-48
2023/09/24 09:47:22;;;;;;;5.07;2.53;;;;;;;;;;5094188;28;20127;-48
2023/09/24 09:49:58;;;;;;;4.47;2.10;;;;;;;;;;5094361;28;20037;-47
2023/09/24 09:52:32;;;;;;;2.92;1.70;;;;;;;;;;5094150;28;20040;-47
2023/09/24 09:55:02;;;;;;;5.13;2.10;;;;;;;;;;5094039;28;20512;-50
2023/09/24 09:57:32;;;;;;;5.05;2.28;;;;;;;;;;5094046;28;20557;-47
2023/09/24 10:00:00;;;;;;;3.78;1.83;;;;;;;;;;5093924;28;20431;-47
2023/09/24 10:02:28;;;;;;;2.92;1.75;;;;;;;;;;5094182;28;20040;-46
2023/09/24 10:04:57;;;;;;;3.92;1.92;;;;;;;;;;5093890;28;20062;-46
2023/09/24 10:07:25;;;;;;;4.88;1.92;;;;;;;;;;5093945;28;20818;-46
2023/09/24 10:09:52;;;;;;;4.82;2.25;;;;;;;;;;5093820;28;20107;-47
2023/09/24 10:12:40;;;;;;;5.53;2.25;;;;;;;;;;5093829;28;20067;-46
2023/09/24 10:15:39;;;;;;;5.20;2.25;;;;;;;;;;5093499;28;20535;-46
2023/09/24 10:18:09;;;;;;;3.65;2.00;;;;;;;;;;5049278;28;20040;-47
2023/09/24 10:21:00;;;;;;;3.88;2.00;;;;;;;;;;5093763;28;20024;-47
2023/09/24 10:23:30;;;;;;;5.05;2.28;;;;;;;;;;5093642;28;20111;-47
2023/09/24 10:26:02;;;;;;;3.00;2.00;;;;;;;;;;5093556;28;20115;-46
2023/09/24 10:28:47;;;;;;;3.90;2.20;;;;;;;;;;5093641;28;20127;-46
2023/09/24 10:31:15;;;;;;;4.45;2.00;;;;;;;;;;5093479;28;20048;-46
2023/09/24 10:33:56;;;;;;;4.15;2.05;;;;;;;;;;5093200;28;20032;-48
2023/09/24 10:36:33;;;;;;;3.90;2.08;;;;;;;;;;5093226;28;20485;-47
2023/09/24 10:39:04;;;;;;;3.85;2.00;;;;;;;;;;5093370;28;20040;-46
2023/09/24 10:41:33;;;;;;;3.67;2.13;;;;;;;;;;5092421;28;20031;-48
2023/09/24 10:44:18;;;;;;;3.00;1.73;;;;;;;;;;5092927;28;20047;-46
2023/09/24 10:46:45;;;;;;;3.75;1.90;;;;;;;;;;5092991;28;20036;-47
2023/09/24 10:49:18;;;;;;;4.90;2.20;;;;;;;;;;5093187;28;20428;-48
2023/09/24 10:51:45;;;;;;;3.83;2.00;;;;;;;;;;5093154;28;20559;-47
2023/09/24 10:54:18;;;;;;;3.65;2.22;;;;;;;;;;5092942;28;20020;-47
2023/09/24 10:56:47;;;;;;;4.05;2.25;;;;;;;;;;5092946;28;20024;-47
2023/09/24 10:59:17;;;;;;;4.07;1.90;;;;;;;;;;5092773;28;20032;-46
2023/09/24 11:01:44;;;;;;;3.92;2.10;;;;;;;;;;5092598;28;20389;-46
2023/09/24 11:04:11;;;;;;;4.28;2.20;;;;;;;;;;5074737;28;20030;-47
2023/09/24 11:06:38;;;;;;;4.72;2.15;;;;;;;;;;5092565;28;20112;-48
2023/09/24 11:09:17;;;;;;;4.65;2.65;;;;;;;;;;5092436;28;20043;-47
2023/09/24 11:11:45;;;;;;;2.80;1.88;;;;;;;;;;5092542;28;20016;-48
2023/09/24 11:14:16;;;;;;;4.22;2.15;;;;;;;;;;5071970;28;20561;-48
2023/09/24 11:16:44;;;;;;;4.68;2.45;;;;;;;;;;5072379;28;20386;-47
2023/09/24 11:19:11;;;;;;;3.53;2.10;;;;;;;;;;5072298;28;20043;-47
2023/09/24 11:21:38;;;;;;;3.65;1.80;;;;;;;;;;5072088;28;20033;-47
2023/09/24 11:24:21;;;;;;;5.90;2.28;;;;;;;;;;5072083;28;20029;-48
2023/09/24 11:26:48;;;;;;;4.32;2.15;;;;;;;;;;5071991;28;20436;-47
2023/09/24 11:29:15;;;;;;;4.75;2.20;;;;;;;;;;5072187;28;20035;-46
2023/09/24 11:31:46;;;;;;;4.22;2.17;;;;;;;;;;5072020;28;20060;-47
2023/09/24 11:34:22;;;;;;;6.82;2.35;;;;;;;;;;5071676;28;20045;-46
2023/09/24 11:36:58;;;;;;;5.13;2.30;;;;;;;;;;5071824;28;20497;-46
2023/09/24 11:39:26;;;;;;;3.95;2.17;;;;;;;;;;5071973;28;20041;-48
2023/09/24 11:41:53;;;;;;;2.72;1.80;;;;;;;;;;5071622;28;20481;-48
2023/09/24 11:44:20;;;;;;;5.40;2.38;;;;;;;;;;5071845;28;20033;-47
2023/09/24 11:46:48;;;;;;;3.65;1.80;;;;;;;;;;5071780;28;20036;-46
2023/09/24 11:49:15;;;;;;;4.68;2.30;;;;;;;;;;5071799;28;20115;-47
2023/09/24 11:51:42;;;;;;;3.30;2.13;;;;;;;;;;5071785;28;20024;-47
2023/09/24 11:54:13;;;;;;;5.25;2.25;;;;;;;;;;5071547;28;20020;-48
2023/09/24 11:56:40;;;;;;;3.88;1.98;;;;;;;;;;5053070;28;20432;-49
2023/09/24 11:59:07;;;;;;;4.45;1.95;;;;;;;;;;5071727;28;20032;-49
2023/09/24 12:01:34;;;;;;;3.45;2.17;;;;;;;;;;5071489;28;20047;-47
2023/09/24 12:04:01;;;;;;;4.10;1.90;;;;;;;;;;5071583;28;20025;-48
2023/09/24 12:06:28;;;;;;;6.43;2.30;;;;;;;;;;5071644;28;20032;-48
2023/09/24 12:08:55;;;;;;;3.50;1.70;;;;;;;;;;5071466;28;20115;-47
2023/09/24 12:11:22;;;;;;;3.80;2.00;;;;;;;;;;5071453;28;20090;-46
2023/09/24 12:13:50;;;;;;;6.18;2.20;;;;;;;;;;5071200;28;20382;-46
2023/09/24 12:16:18;;;;;;;3.70;1.90;;;;;;;;;;5071381;28;20029;-46
2023/09/24 12:18:46;;;;;;;2.63;1.70;;;;;;;;;;5071376;28;20032;-46
2023/09/24 12:21:13;;;;;;;3.78;1.80;;;;;;;;;;5071375;28;20110;-47
2023/09/24 12:23:40;;;;;;;2.88;1.75;;;;;;;;;;5071414;28;20477;-46
2023/09/24 12:26:07;;;;;;;4.15;1.95;;;;;;;;;;5071306;28;20051;-49
2023/09/24 12:28:34;;;;;;;3.20;1.83;;;;;;;;;;5070651;28;20028;-48
2023/09/24 12:31:01;;;;;;;4.40;2.28;;;;;;;;;;5070788;28;20478;-48
2023/09/24 12:33:28;;;;;;;2.80;1.67;;;;;;;;;;5064536;28;20094;-51
2023/09/24 12:35:55;;;;;;;3.25;1.67;;;;;;;;;;5053015;28;20037;-48
2023/09/24 12:38:22;;;;;;;3.95;1.73;;;;;;;;;;5071325;28;20491;-47
2023/09/24 12:40:49;;;;;;;3.38;1.60;;;;;;;;;;5067771;28;20025;-49
2023/09/24 12:43:16;;;;;;;2.92;1.55;;;;;;;;;;5059303;28;20036;-47
2023/09/24 12:45:44;;;;;;;3.28;1.80;;;;;;;;;;5055858;28;20071;-48
2023/09/24 12:48:11;;;;;;;2.95;1.60;;;;;;;;;;5050920;28;20049;-48
2023/09/24 12:50:38;;;;;;;3.30;1.80;;;;;;;;;;5051007;28;20039;-47
2023/09/24 12:53:05;;;;;;;3.97;1.80;;;;;;;;;;5050996;28;20541;-48
2023/09/24 12:55:32;;;;;;;3.72;1.60;;;;;;;;;;5050773;28;20037;-48
2023/09/24 12:57:59;;;;;;;6.40;1.80;;;;;;;;;;5050978;28;20032;-47
2023/09/24 13:00:26;;;;;;;3.92;1.77;;;;;;;;;;5051978;28;20036;-48
2023/09/24 13:02:53;;;;;;;2.60;1.70;;;;;;;;;;5056307;28;20032;-49
2023/09/24 13:05:22;;;;;;;3.90;1.83;;;;;;;;;;5058452;28;20060;-49
2023/09/24 13:07:49;;;;;;;2.38;1.50;;;;;;;;;;5062941;28;20044;-49
2023/09/24 13:10:16;;;;;;;2.45;1.30;;;;;;;;;;5063208;28;20028;-47
2023/09/24 13:12:43;;;;;;;2.45;1.33;;;;;;;;;;5063699;28;20035;-46
2023/09/24 13:15:11;;;;;;;2.70;1.50;;;;;;;;;;5064927;28;20044;-46
2023/09/24 13:17:38;;;;;;;2.70;1.30;;;;;;;;;;5067824;28;20115;-47
2023/09/24 13:20:05;;;;;;;2.30;1.30;;;;;;;;;;5059361;28;20090;-48
2023/09/24 13:22:32;;;;;;;3.00;1.58;;;;;;;;;;5065038;28;20040;-52
2023/09/24 13:24:59;;;;;;;2.75;1.50;;;;;;;;;;5062130;28;20025;-48
2023/09/24 13:27:26;;;;;;;2.42;1.45;;;;;;;;;;5043612;28;20029;-48
2023/09/24 13:29:53;;;;;;;3.28;1.50;;;;;;;;;;5063726;28;20060;-46
2023/09/24 13:32:21;;;;;;;4.40;1.40;;;;;;;;;;5062493;28;20552;-48
2023/09/24 13:34:47;;;;;;;5.05;1.38;;;;;;;;;;5062585;28;20040;-56
2023/09/24 13:37:15;;;;;;;4.82;1.90;;;;;;;;;;5063747;28;20033;-49
2023/09/24 13:39:42;;;;;;;3.00;1.48;;;;;;;;;;5060051;28;20036;-53
2023/09/24 13:42:09;;;;;;;6.05;1.60;;;;;;;;;;5064958;28;20053;-52
2023/09/24 13:44:36;;;;;;;6.45;1.77;;;;;;;;;;5060107;28;20452;-50
2023/09/24 13:47:03;;;;;;;6.13;1.75;;;;;;;;;;5059377;28;20028;-48
2023/09/24 13:49:30;;;;;;;9.23;1.75;;;;;;;;;;5065336;28;21481;-47
2023/09/24 13:51:57;;;;;;;10.43;2.03;;;;;;;;;;5058184;28;20064;-48
2023/09/24 13:54:24;;;;;;;7.35;1.48;;;;;;;;;;5056446;28;20072;-48
2023/09/24 13:56:51;;;;;;;8.30;1.67;;;;;;;;;;5064449;28;20037;-48
2023/09/24 13:59:18;;;;;;;12.73;1.80;;;;;;;;;;5066088;28;20036;-49
2023/09/24 14:01:45;;;;;;;10.85;1.90;;;;;;;;;;5061922;28;20037;-49
2023/09/24 14:04:12;;;;;;;8.50;1.92;;;;;;;;;;5063150;28;20123;-49
2023/09/24 14:06:42;;;;;;;8.82;1.50;;;;;;;;;;5064917;28;20426;-50
2023/09/24 14:14:39;;;;;;;11.63;1.83;;;;;;;;;;5062024;28;20595;-48
2023/09/24 14:17:07;;;;;;;11.00;2.00;;;;;;;;;;5061120;28;20024;-48
2023/09/24 14:19:34;;;;;;;7.70;2.30;;;;;;;;;;5062830;28;20028;-50
2023/09/24 14:22:01;;;;;;;10.70;1.90;;;;;;;;;;5062289;28;20029;-49
2023/09/24 14:24:28;;;;;;;15.75;2.63;;;;;;;;;;5062226;28;20071;-49
2023/09/24 14:26:55;;;;;;;12.55;2.97;;;;;;;;;;5063244;28;20043;-50
2023/09/24 14:29:22;;;;;;;17.42;2.80;;;;;;;;;;5063994;28;20037;-52
2023/09/24 14:31:49;;;;;;;24.63;3.90;;;;;;;;;;5062009;28;20035;-48
2023/09/24 14:34:16;;;;;;;18.33;4.45;;;;;;;;;;5063758;28;20028;-49
2023/09/24 14:36:43;;;;;;;23.10;5.05;;;;;;;;;;5067205;28;20021;-48
2023/09/24 14:39:11;;;;;;;24.60;5.43;;;;;;;;;;5060084;28;20091;-51
2023/09/24 14:41:38;;;;;;;28.38;6.13;;;;;;;;;;5060966;28;20028;-50
2023/09/24 14:44:08;;;;;;;19.70;5.70;;;;;;;;;;5061398;28;20024;-53
2023/09/24 14:46:35;;;;;;;18.25;5.53;;;;;;;;;;5057198;28;20036;-48